createdAt,value
2022-11-09T00:00:17.729Z,100579.94
2022-11-09T00:02:45.169Z,100586.25
2022-11-09T00:05:12.579Z,100581.63
2022-11-09T00:07:40.002Z,100578.09
2022-11-09T00:10:11.209Z,100586.59
2022-11-09T00:12:39.960Z,100582.63
2022-11-09T00:15:08.167Z,100581.69
2022-11-09T00:17:35.562Z,100580.00
2022-11-09T00:20:02.948Z,100578.88
2022-11-09T00:22:30.356Z,100573.72
2022-11-09T00:24:57.762Z,100575.47
2022-11-09T00:27:25.218Z,100567.09
2022-11-09T00:29:53.916Z,100568.81
2022-11-09T00:32:26.650Z,100584.75
2022-11-09T00:34:55.111Z,100582.63
2022-11-09T00:37:22.533Z,100577.47
2022-11-09T00:39:49.936Z,100572.00
2022-11-09T00:42:17.360Z,100569.81
2022-11-09T00:44:44.740Z,100561.72
2022-11-09T00:47:13.477Z,100565.25
2022-11-09T00:49:40.860Z,100574.41
2022-11-09T00:52:08.295Z,100564.66
2022-11-09T00:54:35.704Z,100569.19
2022-11-09T00:57:03.131Z,100561.00
2022-11-09T00:59:30.509Z,100565.72
2022-11-09T01:01:57.895Z,100561.72
2022-11-09T01:04:26.649Z,100571.16
2022-11-09T01:06:54.160Z,100565.63
2022-11-09T01:09:21.623Z,100563.59
2022-11-09T01:11:49.024Z,100559.63
2022-11-09T01:14:16.449Z,100564.16
2022-11-09T01:16:43.855Z,100567.31
2022-11-09T01:19:12.550Z,100546.47
2022-11-09T01:21:41.280Z,100544.53
2022-11-09T01:24:10.176Z,100553.34
2022-11-09T01:26:37.895Z,100541.84
2022-11-09T01:29:05.324Z,100539.44
2022-11-09T01:31:32.830Z,100547.09
2022-11-09T01:34:00.260Z,100543.09
2022-11-09T01:36:27.697Z,100545.63
2022-11-09T01:38:56.683Z,100546.19
2022-11-09T01:41:26.958Z,100538.19
2022-11-09T01:44:05.533Z,100545.22
2022-11-09T01:46:37.034Z,100540.53
2022-11-09T01:49:10.223Z,100545.09
2022-11-09T01:51:41.040Z,100539.72
2022-11-09T01:54:16.838Z,100539.56
2022-11-09T01:56:45.374Z,100544.00
2022-11-09T01:59:18.838Z,100546.06
2022-11-09T02:01:46.886Z,100530.53
2022-11-09T02:04:19.371Z,100515.63
2022-11-09T02:06:48.438Z,100528.22
2022-11-09T02:09:24.599Z,100516.59
2022-11-09T02:11:52.030Z,100517.66
2022-11-09T02:14:21.558Z,100511.47
2022-11-09T02:16:49.158Z,100508.69
2022-11-09T02:19:16.579Z,100515.97
2022-11-09T02:21:45.408Z,100510.88
2022-11-09T02:24:12.903Z,100505.41
2022-11-09T02:26:45.043Z,100512.53
2022-11-09T02:29:16.022Z,100512.56
2022-11-09T02:31:47.176Z,100518.63
2022-11-09T02:34:18.419Z,100512.56
2022-11-09T02:36:47.618Z,100513.38
2022-11-09T02:39:17.605Z,100504.06
2022-11-09T02:41:49.375Z,100504.91
2022-11-09T02:44:17.404Z,100505.78
2022-11-09T02:46:44.870Z,100497.22
2022-11-09T02:49:12.415Z,100502.50
2022-11-09T02:51:39.823Z,100495.59
2022-11-09T02:54:08.811Z,100498.66
2022-11-09T02:56:36.255Z,100504.19
2022-11-09T02:59:04.086Z,100499.53
2022-11-09T03:01:31.917Z,100503.91
2022-11-09T03:03:59.400Z,100495.28
2022-11-09T03:06:34.664Z,100496.31
2022-11-09T03:09:02.572Z,100500.59
2022-11-09T03:11:31.547Z,100497.13
2022-11-09T03:13:58.991Z,100498.75
2022-11-09T03:16:26.453Z,100499.03
2022-11-09T03:18:53.955Z,100486.88
2022-11-09T03:21:22.056Z,100490.72
2022-11-09T03:23:49.600Z,100472.81
2022-11-09T03:26:17.774Z,100467.16
2022-11-09T03:28:46.699Z,100477.78
2022-11-09T03:31:14.508Z,100474.72
2022-11-09T03:33:42.078Z,100480.31
2022-11-09T03:36:10.035Z,100475.22
2022-11-09T03:38:37.422Z,100484.59
2022-11-09T03:41:05.026Z,100498.25
2022-11-09T03:43:32.424Z,100507.72
2022-11-09T03:46:01.164Z,100513.63
2022-11-09T03:48:28.624Z,100505.41
2022-11-09T03:50:56.007Z,100507.72
2022-11-09T03:53:23.485Z,100511.19
2022-11-09T03:55:50.899Z,100512.13
2022-11-09T03:58:18.393Z,100515.63
2022-11-09T04:00:45.800Z,100512.84
2022-11-09T04:03:14.529Z,100511.97
2022-11-09T04:05:41.915Z,100517.31
2022-11-09T04:08:09.342Z,100529.00
2022-11-09T04:10:36.783Z,100526.22
2022-11-09T04:13:04.250Z,100524.47
2022-11-09T04:15:31.742Z,100520.47
2022-11-09T04:18:00.836Z,100515.13
2022-11-09T04:20:30.882Z,100515.78
2022-11-09T04:22:59.771Z,100511.13
2022-11-09T04:25:28.694Z,100506.03
2022-11-09T04:27:56.750Z,100506.94
2022-11-09T04:30:24.354Z,100502.78
2022-11-09T04:32:52.000Z,100507.16
2022-11-09T04:35:19.402Z,100495.53
2022-11-09T04:37:55.269Z,100501.88
2022-11-09T04:40:23.134Z,100505.38
2022-11-09T04:42:50.643Z,100512.94
2022-11-09T04:45:18.587Z,100514.19
2022-11-09T04:47:46.003Z,100518.97
2022-11-09T04:50:14.075Z,100511.84
2022-11-09T04:52:41.777Z,100509.03
2022-11-09T04:55:10.566Z,100501.19
2022-11-09T04:57:38.607Z,100521.09
2022-11-09T05:00:06.634Z,100521.72
2022-11-09T05:02:34.173Z,100515.63
2022-11-09T05:05:01.554Z,100513.13
2022-11-09T05:07:28.983Z,100508.53
2022-11-09T05:09:56.415Z,100516.31
2022-11-09T05:12:25.157Z,100528.00
2022-11-09T05:14:52.551Z,100528.19
2022-11-09T05:17:19.952Z,100528.56
2022-11-09T05:19:47.362Z,100523.19
2022-11-09T05:22:34.693Z,100528.16
2022-11-09T05:25:02.103Z,100524.91
2022-11-09T05:27:30.798Z,100522.53
2022-11-09T05:29:58.248Z,100528.91
2022-11-09T05:32:25.646Z,100525.97
2022-11-09T05:34:53.057Z,100518.41
2022-11-09T05:37:22.170Z,100525.72
2022-11-09T05:39:49.905Z,100540.06
2022-11-09T05:42:17.323Z,100529.16
2022-11-09T05:44:46.063Z,100531.63
2022-11-09T05:47:13.461Z,100528.50
2022-11-09T05:49:40.863Z,100521.16
2022-11-09T05:52:08.311Z,100526.41
2022-11-09T05:54:35.747Z,100527.66
2022-11-09T05:57:03.123Z,100521.38
2022-11-09T05:59:30.583Z,100529.44
2022-11-09T06:01:59.458Z,100530.91
2022-11-09T06:04:26.919Z,100533.63
2022-11-09T06:06:54.402Z,100517.75
2022-11-09T06:09:21.864Z,100522.16
2022-11-09T06:11:51.092Z,100518.78
2022-11-09T06:14:18.675Z,100528.16
2022-11-09T06:16:46.122Z,100539.34
2022-11-09T06:19:14.847Z,100543.09
2022-11-09T06:21:42.269Z,100543.03
2022-11-09T06:24:10.435Z,100550.53
2022-11-09T06:26:38.111Z,100553.09
2022-11-09T06:29:06.009Z,100563.09
2022-11-09T06:31:33.432Z,100554.88
2022-11-09T06:34:00.852Z,100547.94
2022-11-09T06:36:29.551Z,100559.47
2022-11-09T06:38:56.937Z,100550.50
2022-11-09T06:41:24.318Z,100553.25
2022-11-09T06:43:51.754Z,100561.28
2022-11-09T06:46:20.466Z,100556.97
2022-11-09T06:48:53.336Z,100571.50
2022-11-09T06:51:21.882Z,100570.88
2022-11-09T06:53:50.726Z,100572.66
2022-11-09T06:56:18.176Z,100577.38
2022-11-09T06:58:45.568Z,100577.97
2022-11-09T07:01:15.716Z,100588.44
2022-11-09T07:03:46.250Z,100581.25
2022-11-09T07:06:14.019Z,100583.69
2022-11-09T07:08:42.145Z,100585.19
2022-11-09T07:11:13.211Z,100585.19
2022-11-09T07:13:42.396Z,100583.38
2022-11-09T07:16:11.983Z,100577.81
2022-11-09T07:18:39.620Z,100569.22
2022-11-09T07:21:13.833Z,100567.50
2022-11-09T07:23:42.341Z,100566.91
2022-11-09T07:26:11.067Z,100556.22
2022-11-09T07:28:38.470Z,100553.41
2022-11-09T07:31:06.392Z,100540.44
2022-11-09T07:33:34.113Z,100524.25
2022-11-09T07:36:03.228Z,100521.38
2022-11-09T07:38:31.090Z,100507.22
2022-11-09T07:40:59.303Z,100518.22
2022-11-09T07:43:28.617Z,100555.16
2022-11-09T07:45:56.309Z,100583.78
2022-11-09T07:48:24.044Z,100598.94
2022-11-09T07:50:51.554Z,100595.66
2022-11-09T07:53:19.388Z,100589.22
2022-11-09T07:55:47.015Z,100576.56
2022-11-09T07:58:16.470Z,100581.38
2022-11-09T08:00:45.359Z,100582.09
2022-11-09T08:03:12.842Z,100592.00
2022-11-09T08:05:41.038Z,100590.47
2022-11-09T08:08:11.242Z,100586.56
2022-11-09T08:10:40.061Z,100581.13
2022-11-09T08:13:09.149Z,100579.44
2022-11-09T08:15:38.260Z,100569.22
2022-11-09T08:18:09.149Z,100577.75
2022-11-09T08:20:36.534Z,100581.81
2022-11-09T08:23:05.028Z,100577.59
2022-11-09T08:25:32.694Z,100576.66
2022-11-09T08:28:00.139Z,100582.66
2022-11-09T08:30:27.716Z,100584.69
2022-11-09T08:32:55.174Z,100588.44
2022-11-09T08:35:25.142Z,100563.88
2022-11-09T08:37:53.626Z,100555.09
2022-11-09T08:40:22.697Z,100553.13
2022-11-09T08:42:50.414Z,100562.72
2022-11-09T08:45:18.456Z,100577.34
2022-11-09T08:47:46.225Z,100591.28
2022-11-09T08:50:15.575Z,100591.19
2022-11-09T08:52:44.280Z,100598.13
2022-11-09T08:55:11.709Z,100600.56
2022-11-09T08:57:39.094Z,100596.22
2022-11-09T09:00:07.767Z,100608.44
2022-11-09T09:02:35.196Z,100596.22
2022-11-09T09:05:07.405Z,100596.22
2022-11-09T09:07:35.364Z,100597.88
2022-11-09T09:10:04.739Z,100603.13
2022-11-09T09:12:32.355Z,100608.34
2022-11-09T09:15:01.661Z,100596.22
2022-11-09T09:17:29.180Z,100607.53
2022-11-09T09:19:56.672Z,100603.31
2022-11-09T09:22:24.202Z,100605.81
2022-11-09T09:24:51.615Z,100601.28
2022-11-09T09:27:20.522Z,100602.78
2022-11-09T09:29:47.929Z,100608.91
2022-11-09T09:32:15.338Z,100622.53
2022-11-09T09:34:42.796Z,100630.28
2022-11-09T09:37:10.191Z,100623.19
2022-11-09T09:39:37.643Z,100621.16
2022-11-09T09:42:08.285Z,100620.22
2022-11-09T09:44:41.905Z,100628.78
2022-11-09T09:47:14.406Z,100633.25
2022-11-09T09:49:44.819Z,100645.19
2022-11-09T09:52:20.949Z,100636.66
2022-11-09T09:55:00.923Z,100635.50
2022-11-09T09:57:31.266Z,100640.88
2022-11-09T10:00:03.419Z,100643.56
2022-11-09T10:02:32.522Z,100639.47
2022-11-09T10:05:03.111Z,100647.84
2022-11-09T10:07:34.326Z,100659.38
2022-11-09T10:10:17.773Z,100652.03
2022-11-09T10:13:05.806Z,100657.78
2022-11-09T10:15:39.520Z,100648.19
2022-11-09T10:18:24.404Z,100653.25
2022-11-09T10:21:03.922Z,100657.19
2022-11-09T10:23:42.346Z,100654.38
2022-11-09T10:26:18.930Z,100653.94
2022-11-09T10:31:42.006Z,100633.91
2022-11-09T10:34:18.168Z,100630.81
2022-11-09T10:36:53.464Z,100625.09
2022-11-09T10:39:25.384Z,100625.84
2022-11-09T10:41:53.073Z,100621.59
2022-11-09T10:44:21.328Z,100623.56
2022-11-09T10:47:11.515Z,100616.00
2022-11-09T10:49:40.582Z,100621.38
2022-11-09T10:52:32.664Z,100616.34
2022-11-09T10:55:24.519Z,100609.59
2022-11-09T10:57:55.678Z,100603.91
2022-11-09T11:00:23.671Z,100608.41
2022-11-09T11:02:53.208Z,100605.63
2022-11-09T11:05:24.570Z,100607.78
2022-11-09T11:07:52.007Z,100597.44
2022-11-09T11:10:21.561Z,100601.16
2022-11-09T11:12:58.061Z,100587.78
2022-11-09T11:15:30.046Z,100605.16
2022-11-09T11:18:04.812Z,100600.75
2022-11-09T11:20:34.521Z,100603.41
2022-11-09T11:23:13.064Z,100595.91
2022-11-09T11:25:58.731Z,100585.47
2022-11-09T11:28:32.960Z,100588.88
2022-11-09T11:31:00.530Z,100583.91
2022-11-09T11:33:29.736Z,100597.31
2022-11-09T11:36:02.890Z,100596.78
2022-11-09T11:38:35.656Z,100588.34
2022-11-09T11:41:15.042Z,100589.56
2022-11-09T11:43:49.491Z,100578.44
2022-11-09T11:46:28.568Z,100580.44
2022-11-09T11:49:21.709Z,100586.44
2022-11-09T11:51:56.163Z,100574.16
2022-11-09T11:54:32.641Z,100571.22
2022-11-09T11:57:11.466Z,100568.09
2022-11-09T11:59:54.211Z,100566.31
2022-11-09T12:03:07.453Z,100574.22
2022-11-09T12:06:01.595Z,100558.22
2022-11-09T12:08:37.442Z,100557.16
2022-11-09T12:11:14.192Z,100561.28
2022-11-09T12:13:52.931Z,100550.22
2022-11-09T12:16:28.831Z,100559.53
2022-11-09T12:19:14.417Z,100551.31
2022-11-09T12:21:52.463Z,100548.78
2022-11-09T12:24:26.682Z,100548.25
2022-11-09T12:27:31.467Z,100558.94
2022-11-09T12:30:04.798Z,100565.94
2022-11-09T12:32:39.261Z,100563.81
2022-11-09T12:35:20.667Z,100568.03
2022-11-09T12:37:53.494Z,100562.72
2022-11-09T12:40:24.701Z,100552.69
2022-11-09T12:42:57.859Z,100552.59
2022-11-09T12:45:29.144Z,100567.25
2022-11-09T12:47:59.823Z,100569.22
2022-11-09T12:50:27.854Z,100568.44
2022-11-09T12:52:57.283Z,100569.59
2022-11-09T12:55:31.595Z,100565.25
2022-11-09T12:58:01.104Z,100564.31
2022-11-09T13:00:47.730Z,100560.63
2022-11-09T13:03:21.565Z,100548.44
2022-11-09T13:05:50.124Z,100567.13
2022-11-09T13:08:26.154Z,100573.91
2022-11-09T13:11:10.019Z,100570.66
2022-11-09T13:13:37.942Z,100555.34
2022-11-09T13:16:12.548Z,100560.38
2022-11-09T13:18:52.223Z,100555.53
2022-11-09T13:21:37.589Z,100553.88
2022-11-09T13:24:53.731Z,100567.41
2022-11-09T13:27:38.607Z,100561.88
2022-11-09T13:30:40.418Z,100567.34
2022-11-09T13:33:23.973Z,100567.78
2022-11-09T13:36:23.597Z,100564.09
2022-11-09T13:39:28.545Z,100579.84
2022-11-09T13:41:56.001Z,100576.41
2022-11-09T13:44:27.473Z,100580.06
2022-11-09T13:46:55.491Z,100572.47
2022-11-09T13:49:45.097Z,100565.81
2022-11-09T13:52:51.553Z,100583.06
2022-11-09T13:55:29.905Z,100575.91
2022-11-09T13:58:02.724Z,100582.69
2022-11-09T14:00:32.006Z,100570.59
2022-11-09T14:03:03.805Z,100573.91
2022-11-09T14:05:34.596Z,100571.94
2022-11-09T14:08:04.961Z,100574.28
2022-11-09T14:10:52.874Z,100575.59
2022-11-09T14:13:35.641Z,100578.56
2022-11-09T14:16:14.391Z,100587.13
2022-11-09T14:18:50.150Z,100591.47
2022-11-09T14:21:44.896Z,100591.97
2022-11-09T14:24:17.217Z,100590.88
2022-11-09T14:27:04.848Z,100585.78
2022-11-09T14:29:33.816Z,100584.47
2022-11-09T14:32:23.193Z,100589.09
2022-11-09T14:34:50.784Z,100584.31
2022-11-09T14:37:18.507Z,100582.72
2022-11-09T14:39:49.286Z,100593.78
2022-11-09T14:42:21.321Z,100595.75
2022-11-09T14:44:49.565Z,100597.78
2022-11-09T14:47:21.843Z,100590.38
2022-11-09T14:49:50.513Z,100591.47
2022-11-09T14:52:27.419Z,100592.31
2022-11-09T14:54:55.313Z,100589.31
2022-11-09T14:57:23.913Z,100600.22
2022-11-09T14:59:51.752Z,100587.84
2022-11-09T15:02:22.872Z,100603.66
2022-11-09T15:04:54.846Z,100599.06
2022-11-09T15:07:25.111Z,100595.72
2022-11-09T15:09:56.442Z,100603.72
2022-11-09T15:12:24.144Z,100603.97
2022-11-09T15:14:54.247Z,100602.41
2022-11-09T15:17:27.417Z,100598.53
2022-11-09T15:19:57.557Z,100597.38
2022-11-09T15:22:50.167Z,100602.06
2022-11-09T15:25:23.877Z,100597.78
2022-11-09T15:28:00.729Z,100594.38
2022-11-09T15:30:33.351Z,100599.47
2022-11-09T15:33:11.611Z,100590.78
2022-11-09T15:35:49.237Z,100599.53
2022-11-09T15:38:31.777Z,100590.34
2022-11-09T15:40:59.359Z,100588.91
2022-11-09T15:43:27.609Z,100598.50
2022-11-09T15:45:55.538Z,100597.38
2022-11-09T15:48:24.315Z,100604.41
2022-11-09T15:50:52.867Z,100610.44
2022-11-09T15:53:20.338Z,100606.28
2022-11-09T15:55:48.026Z,100613.09
2022-11-09T15:58:17.517Z,100601.75
2022-11-09T16:00:45.376Z,100608.44
2022-11-09T16:03:13.074Z,100608.59
2022-11-09T16:05:41.766Z,100600.63
2022-11-09T16:08:09.482Z,100614.88
2022-11-09T16:10:38.838Z,100620.59
2022-11-09T16:13:06.985Z,100615.44
2022-11-09T16:15:35.716Z,100617.59
2022-11-09T16:18:03.810Z,100620.41
2022-11-09T16:20:31.526Z,100614.22
2022-11-09T16:23:00.262Z,100609.78
2022-11-09T16:25:27.825Z,100618.31
2022-11-09T16:27:55.219Z,100614.56
2022-11-09T16:30:22.733Z,100616.41
2022-11-09T16:32:50.442Z,100624.16
2022-11-09T16:35:33.258Z,100636.44
2022-11-09T16:38:04.325Z,100635.94
2022-11-09T16:40:31.920Z,100640.44
2022-11-09T16:43:01.735Z,100639.09
2022-11-09T16:45:33.350Z,100642.00
2022-11-09T16:48:05.311Z,100643.09
2022-11-09T16:50:32.746Z,100649.13
2022-11-09T16:53:01.661Z,100642.88
2022-11-09T16:55:29.079Z,100645.59
2022-11-09T16:57:56.442Z,100649.69
2022-11-09T17:00:27.655Z,100642.19
2022-11-09T17:03:05.459Z,100647.97
2022-11-09T17:05:32.855Z,100645.59
2022-11-09T17:08:01.543Z,100646.78
2022-11-09T17:10:28.968Z,100645.69
2022-11-09T17:12:56.356Z,100648.84
2022-11-09T17:15:24.081Z,100641.34
2022-11-09T17:17:51.520Z,100647.00
2022-11-09T17:20:19.195Z,100652.16
2022-11-09T17:22:46.619Z,100658.66
2022-11-09T17:25:16.358Z,100663.22
2022-11-09T17:27:43.743Z,100668.16
2022-11-09T17:30:11.763Z,100661.63
2022-11-09T17:32:41.040Z,100668.16
2022-11-09T17:35:08.904Z,100667.06
2022-11-09T17:37:36.368Z,100678.16
2022-11-09T17:40:03.910Z,100682.47
2022-11-09T17:42:34.465Z,100692.03
2022-11-09T17:45:01.837Z,100711.34
2022-11-09T17:47:29.222Z,100718.31
2022-11-09T17:49:56.583Z,100724.56
2022-11-09T17:52:24.049Z,100737.50
2022-11-09T17:54:51.486Z,100733.03
2022-11-09T17:57:18.872Z,100736.22
2022-11-09T17:59:47.692Z,100732.78
2022-11-09T18:02:15.456Z,100744.25
2022-11-09T18:04:43.284Z,100734.78
2022-11-09T18:07:10.953Z,100737.41
2022-11-09T18:09:42.553Z,100733.72
2022-11-09T18:12:10.400Z,100745.66
2022-11-09T18:14:37.998Z,100763.84
2022-11-09T18:17:06.765Z,100767.25
2022-11-09T18:19:34.277Z,100767.25
2022-11-09T18:22:03.406Z,100770.75
2022-11-09T18:24:32.965Z,100770.00
2022-11-09T18:27:00.745Z,100770.78
2022-11-09T18:29:28.143Z,100767.34
2022-11-09T18:31:55.537Z,100768.19
2022-11-09T18:34:24.316Z,100773.47
2022-11-09T18:36:51.917Z,100771.16
2022-11-09T18:39:19.348Z,100782.97
2022-11-09T18:41:46.771Z,100774.16
2022-11-09T18:44:14.402Z,100767.63
2022-11-09T18:46:41.787Z,100767.22
2022-11-09T18:49:14.063Z,100775.75
2022-11-09T18:51:44.020Z,100779.28
2022-11-09T18:54:11.390Z,100762.31
2022-11-09T18:56:38.863Z,100775.22
2022-11-09T18:59:06.469Z,100770.03
2022-11-09T19:01:34.003Z,100763.75
2022-11-09T19:04:01.893Z,100754.94
2022-11-09T19:06:29.460Z,100772.97
2022-11-09T19:09:15.733Z,100755.38
2022-11-09T19:11:43.310Z,100760.31
2022-11-09T19:14:11.148Z,100762.19
2022-11-09T19:16:38.750Z,100767.19
2022-11-09T19:19:06.233Z,100771.63
2022-11-09T19:21:40.070Z,100770.81
2022-11-09T19:24:12.174Z,100781.13
2022-11-09T19:26:39.600Z,100775.28
2022-11-09T19:29:07.938Z,100776.03
2022-11-09T19:31:36.065Z,100785.63
2022-11-09T19:34:03.556Z,100783.09
2022-11-09T19:36:33.780Z,100781.31
2022-11-09T19:39:02.133Z,100789.13
2022-11-09T19:41:30.967Z,100796.91
2022-11-09T19:43:59.676Z,100785.63
2022-11-09T19:46:27.843Z,100795.13
2022-11-09T19:48:55.258Z,100793.47
2022-11-09T19:51:23.017Z,100793.44
2022-11-09T19:53:51.490Z,100800.41
2022-11-09T19:59:51.234Z,100805.56
2022-11-09T20:02:18.679Z,100809.06
2022-11-09T20:04:47.469Z,100810.78
2022-11-09T20:07:14.928Z,100813.47
2022-11-09T20:09:42.353Z,100811.25
2022-11-09T20:12:28.539Z,100820.63
2022-11-09T20:14:57.483Z,100827.31
2022-11-09T20:17:25.192Z,100835.09
2022-11-09T20:19:52.608Z,100831.59
2022-11-09T20:22:20.038Z,100831.53
2022-11-09T20:24:47.486Z,100842.03
2022-11-09T20:27:15.517Z,100837.63
2022-11-09T20:29:42.904Z,100835.09
2022-11-09T20:32:12.463Z,100836.03
2022-11-09T20:34:40.077Z,100838.63
2022-11-09T20:37:07.515Z,100842.16
2022-11-09T20:39:35.329Z,100840.41
2022-11-09T20:42:02.719Z,100844.66
2022-11-09T20:44:30.139Z,100840.38
2022-11-09T20:46:57.680Z,100846.44
2022-11-09T20:49:26.676Z,100838.63
2022-11-09T20:51:54.108Z,100847.41
2022-11-09T20:54:21.697Z,100850.75
2022-11-09T20:58:03.522Z,100851.66
2022-11-09T21:00:31.972Z,100855.22
2022-11-09T21:03:00.087Z,100869.84
2022-11-09T21:05:28.811Z,100855.09
2022-11-09T21:07:56.307Z,100864.81
2022-11-09T21:10:23.769Z,100862.91
2022-11-09T21:12:53.970Z,100857.69
2022-11-09T21:15:21.457Z,100860.31
2022-11-09T21:17:49.197Z,100858.66
2022-11-09T21:20:16.877Z,100864.66
2022-11-09T21:26:54.249Z,100871.78
2022-11-09T21:29:41.143Z,100870.75
2022-11-09T21:32:10.664Z,100872.53
2022-11-09T21:34:38.171Z,100869.88
2022-11-09T21:37:05.863Z,100875.00
2022-11-09T21:39:33.578Z,100870.91
2022-11-09T21:42:03.338Z,100878.56
2022-11-09T21:44:31.955Z,100875.91
2022-11-09T21:46:59.770Z,100873.25
2022-11-09T21:49:27.220Z,100868.06
2022-11-09T21:51:55.335Z,100878.53
2022-11-09T21:54:23.497Z,100881.91
2022-11-09T21:56:52.047Z,100881.16
2022-11-09T21:59:20.790Z,100878.47
2022-11-09T22:01:48.310Z,100885.41
2022-11-09T22:04:16.184Z,100881.81
2022-11-09T22:06:44.085Z,100891.47
2022-11-09T22:09:15.845Z,100895.88
2022-11-09T22:12:00.810Z,100898.53
2022-11-09T22:14:47.545Z,100902.84
2022-11-09T22:17:15.024Z,100910.59
2022-11-09T22:20:00.191Z,100916.66
2022-11-09T22:22:30.720Z,100906.22
2022-11-09T22:24:58.413Z,100914.78
2022-11-09T22:27:25.961Z,100917.47
2022-11-09T22:29:54.659Z,100921.81
2022-11-09T22:32:22.539Z,100925.22
2022-11-09T22:34:50.294Z,100930.47
2022-11-09T22:37:17.935Z,100932.19
2022-11-09T22:39:47.501Z,100939.13
2022-11-09T22:42:15.499Z,100934.66
2022-11-09T22:44:42.961Z,100946.88
2022-11-09T22:47:11.790Z,100946.00
2022-11-09T22:49:39.284Z,100950.31
2022-11-09T22:52:06.864Z,100951.22
2022-11-09T22:54:34.311Z,100961.50
2022-11-09T22:57:01.776Z,100955.28
2022-11-09T22:59:29.270Z,100969.34
2022-11-09T23:01:56.712Z,100957.81
2022-11-09T23:04:25.491Z,100972.75
2022-11-09T23:06:53.311Z,100973.41
2022-11-09T23:09:20.946Z,100973.44
2022-11-09T23:11:48.353Z,100971.78
2022-11-09T23:14:35.742Z,100963.63
2022-11-09T23:17:23.153Z,100969.03
2022-11-09T23:19:50.901Z,100967.22
2022-11-09T23:22:18.347Z,100971.47
2022-11-09T23:25:03.332Z,100976.75
2022-11-09T23:27:30.949Z,100974.97
2022-11-09T23:29:58.332Z,100987.16
2022-11-09T23:32:25.722Z,101004.50
2022-11-09T23:34:54.451Z,101001.13
2022-11-09T23:37:21.888Z,100999.56
2022-11-09T23:39:49.296Z,100995.03
2022-11-09T23:42:16.700Z,101001.06
2022-11-09T23:44:44.071Z,101001.25
2022-11-09T23:47:11.443Z,101006.13
2022-11-09T23:49:38.878Z,100996.63
2022-11-09T23:52:07.781Z,101010.53
2022-11-09T23:54:35.282Z,100997.78
2022-11-09T23:57:02.697Z,101013.34
2022-11-09T23:59:30.121Z,101015.09
